sensor_id;sensor_type;location;lat;lon;timestamp;pressure;altitude;pressure_sealevel;temperature;humidity
47154;BME280;32907;41.412;2.164;2022-08-25T08:08:16;100467.03;;;27.16;51.66
47154;BME280;32907;41.412;2.164;2022-08-25T08:10:45;100423.25;;;27.02;50.90
47154;BME280;32907;41.412;2.164;2022-08-25T08:13:32;100479.41;;;27.68;50.40
47154;BME280;32907;41.412;2.164;2022-08-25T08:16:11;100480.75;;;27.86;49.71
47154;BME280;32907;41.412;2.164;2022-08-25T08:18:41;100482.31;;;28.11;49.32
47154;BME280;32907;41.412;2.164;2022-08-25T08:21:15;100463.69;;;28.21;48.60
47154;BME280;32907;41.412;2.164;2022-08-25T08:23:46;100491.69;;;28.47;48.33
47154;BME280;32907;41.412;2.164;2022-08-25T08:26:16;100438.41;;;28.31;48.56
47154;BME280;32907;41.412;2.164;2022-08-25T08:28:44;100339.06;;;27.87;48.63
47154;BME280;32907;41.412;2.164;2022-08-25T08:31:20;100447.78;;;28.70;48.60
47154;BME280;32907;41.412;2.164;2022-08-25T08:33:49;100461.28;;;28.87;47.59
47154;BME280;32907;41.412;2.164;2022-08-25T08:36:17;100464.63;;;28.93;47.50
47154;BME280;32907;41.412;2.164;2022-08-25T08:38:47;100487.97;;;29.11;47.61
47154;BME280;32907;41.412;2.164;2022-08-25T08:52:47;100496.13;;;29.20;44.92
47154;BME280;32907;41.412;2.164;2022-08-25T08:55:28;100488.16;;;29.18;45.20
47154;BME280;32907;41.412;2.164;2022-08-25T08:57:59;100501.00;;;29.26;46.44
47154;BME280;32907;41.412;2.164;2022-08-25T09:00:30;100507.78;;;29.29;45.43
47154;BME280;32907;41.412;2.164;2022-08-25T09:03:34;100523.09;;;29.42;45.66
47154;BME280;32907;41.412;2.164;2022-08-25T09:06:19;100472.72;;;29.02;45.72
47154;BME280;32907;41.412;2.164;2022-08-25T09:08:48;100489.44;;;29.21;46.35
47154;BME280;32907;41.412;2.164;2022-08-25T09:17:00;100549.00;;;29.50;44.94
47154;BME280;32907;41.412;2.164;2022-08-25T09:19:37;100542.31;;;29.51;44.93
47154;BME280;32907;41.412;2.164;2022-08-25T09:25:22;100542.78;;;29.53;45.91
47154;BME280;32907;41.412;2.164;2022-08-25T09:28:29;100472.84;;;29.05;45.68
47154;BME280;32907;41.412;2.164;2022-08-25T09:31:16;100529.91;;;29.45;47.24
47154;BME280;32907;41.412;2.164;2022-08-25T09:33:46;100509.03;;;29.32;48.20
47154;BME280;32907;41.412;2.164;2022-08-25T09:36:15;100537.16;;;29.65;47.41
47154;BME280;32907;41.412;2.164;2022-08-25T09:38:46;100411.81;;;28.94;47.81
47154;BME280;32907;41.412;2.164;2022-08-25T09:41:35;100501.16;;;29.62;48.54
47154;BME280;32907;41.412;2.164;2022-08-25T09:44:31;100515.22;;;29.72;46.39
47154;BME280;32907;41.412;2.164;2022-08-25T09:47:04;100459.31;;;29.32;46.76
47154;BME280;32907;41.412;2.164;2022-08-25T09:49:40;100494.81;;;29.61;47.88
47154;BME280;32907;41.412;2.164;2022-08-25T09:52:40;100525.28;;;29.80;48.60
47154;BME280;32907;41.412;2.164;2022-08-25T10:00:25;100521.53;;;29.89;49.56
47154;BME280;32907;41.412;2.164;2022-08-25T10:11:39;100524.47;;;29.96;50.20
47154;BME280;32907;41.412;2.164;2022-08-25T10:14:32;100533.66;;;30.00;50.95
47154;BME280;32907;41.412;2.164;2022-08-25T10:17:21;100510.84;;;29.87;50.94
47154;BME280;32907;41.412;2.164;2022-08-25T10:22:41;100509.75;;;29.92;51.26
47154;BME280;32907;41.412;2.164;2022-08-25T10:25:12;100526.22;;;30.04;50.70
47154;BME280;32907;41.412;2.164;2022-08-25T10:30:47;100506.94;;;30.07;51.42
47154;BME280;32907;41.412;2.164;2022-08-25T10:36:48;100491.66;;;30.10;51.15
47154;BME280;32907;41.412;2.164;2022-08-25T10:39:39;100493.63;;;30.10;51.35
47154;BME280;32907;41.412;2.164;2022-08-25T10:45:22;100453.03;;;29.82;51.14
47154;BME280;32907;41.412;2.164;2022-08-25T10:57:04;100482.19;;;30.11;50.33
47154;BME280;32907;41.412;2.164;2022-08-25T11:04:57;100456.56;;;30.14;52.33
47154;BME280;32907;41.412;2.164;2022-08-25T11:07:33;100461.81;;;30.19;52.01
47154;BME280;32907;41.412;2.164;2022-08-25T11:10:19;100403.38;;;29.86;52.56
47154;BME280;32907;41.412;2.164;2022-08-25T11:12:56;100436.03;;;30.15;52.02
47154;BME280;32907;41.412;2.164;2022-08-25T11:18:09;100419.75;;;30.10;51.20
47154;BME280;32907;41.412;2.164;2022-08-25T11:25:48;100355.50;;;29.81;52.35
47154;BME280;32907;41.412;2.164;2022-08-25T11:28:33;100438.41;;;30.32;53.01
47154;BME280;32907;41.412;2.164;2022-08-25T11:31:03;100416.13;;;30.25;53.13
47154;BME280;32907;41.412;2.164;2022-08-25T11:33:32;100398.13;;;30.16;53.31
47154;BME280;32907;41.412;2.164;2022-08-25T11:36:10;100416.75;;;30.38;53.18
47154;BME280;32907;41.412;2.164;2022-08-25T11:51:07;100397.34;;;30.34;52.60
47154;BME280;32907;41.412;2.164;2022-08-25T11:53:41;100409.41;;;30.46;52.07
47154;BME280;32907;41.412;2.164;2022-08-25T11:56:32;100406.63;;;30.46;52.62
47154;BME280;32907;41.412;2.164;2022-08-25T11:59:06;100395.56;;;30.46;52.42
47154;BME280;32907;41.412;2.164;2022-08-25T12:07:18;100399.78;;;30.40;52.56
47154;BME280;32907;41.412;2.164;2022-08-25T12:15:26;100335.38;;;30.00;52.48
47154;BME280;32907;41.412;2.164;2022-08-25T12:18:17;100435.25;;;30.53;52.93
47154;BME280;32907;41.412;2.164;2022-08-25T12:21:14;100422.56;;;30.52;52.61
47154;BME280;32907;41.412;2.164;2022-08-25T12:23:45;100398.34;;;30.26;52.83
47154;BME280;32907;41.412;2.164;2022-08-25T12:26:40;100433.69;;;30.56;52.46
47154;BME280;32907;41.412;2.164;2022-08-25T12:37:32;100429.78;;;30.57;52.38
47154;BME280;32907;41.412;2.164;2022-08-25T12:40:04;100394.72;;;30.42;52.61
47154;BME280;32907;41.412;2.164;2022-08-25T12:42:37;100429.78;;;30.57;52.92
47154;BME280;32907;41.412;2.164;2022-08-25T12:47:36;100364.94;;;30.16;53.10
47154;BME280;32907;41.412;2.164;2022-08-25T12:55:46;100429.00;;;30.56;53.82
47154;BME280;32907;41.412;2.164;2022-08-25T12:58:15;100434.00;;;30.51;54.27
47154;BME280;32907;41.412;2.164;2022-08-25T13:03:44;100428.06;;;30.49;54.07
47154;BME280;32907;41.412;2.164;2022-08-25T13:11:46;100362.28;;;30.03;54.29
47154;BME280;32907;41.412;2.164;2022-08-25T13:14:24;100421.22;;;30.43;54.67
47154;BME280;32907;41.412;2.164;2022-08-25T13:17:04;100425.84;;;30.39;54.29
47154;BME280;32907;41.412;2.164;2022-08-25T13:19:32;100423.09;;;30.39;54.57
47154;BME280;32907;41.412;2.164;2022-08-25T13:22:25;100431.03;;;30.40;54.44
47154;BME280;32907;41.412;2.164;2022-08-25T13:24:54;100422.38;;;30.42;54.14
47154;BME280;32907;41.412;2.164;2022-08-25T13:27:35;100391.66;;;30.27;54.12
47154;BME280;32907;41.412;2.164;2022-08-25T13:30:04;100414.94;;;30.46;53.83
47154;BME280;32907;41.412;2.164;2022-08-25T13:32:35;100416.47;;;30.43;54.06
47154;BME280;32907;41.412;2.164;2022-08-25T13:35:16;100408.97;;;30.44;54.21
47154;BME280;32907;41.412;2.164;2022-08-25T13:37:46;100309.63;;;29.77;53.70
47154;BME280;32907;41.412;2.164;2022-08-25T13:40:25;100408.53;;;30.42;53.59
47154;BME280;32907;41.412;2.164;2022-08-25T13:43:03;100385.69;;;30.25;53.75
47154;BME280;32907;41.412;2.164;2022-08-25T13:45:37;100406.56;;;30.42;54.02
47154;BME280;32907;41.412;2.164;2022-08-25T13:48:09;100400.25;;;30.42;54.49
47154;BME280;32907;41.412;2.164;2022-08-25T13:50:49;100343.38;;;30.05;53.96
47154;BME280;32907;41.412;2.164;2022-08-25T13:53:22;100391.47;;;30.40;53.61
47154;BME280;32907;41.412;2.164;2022-08-25T13:55:56;100382.75;;;30.38;54.10
47154;BME280;32907;41.412;2.164;2022-08-25T13:58:33;100283.72;;;29.85;53.99
47154;BME280;32907;41.412;2.164;2022-08-25T14:01:15;100372.94;;;30.40;53.70
47154;BME280;32907;41.412;2.164;2022-08-25T14:04:24;100382.03;;;30.41;53.74
47154;BME280;32907;41.412;2.164;2022-08-25T14:12:46;100315.03;;;30.08;54.29
47154;BME280;32907;41.412;2.164;2022-08-25T14:17:47;100340.97;;;30.43;54.09
47154;BME280;32907;41.412;2.164;2022-08-25T14:20:24;100335.88;;;30.45;54.45
47154;BME280;32907;41.412;2.164;2022-08-25T14:23:07;100297.03;;;30.18;54.31
47154;BME280;32907;41.412;2.164;2022-08-25T14:25:36;100325.91;;;30.40;54.56
47154;BME280;32907;41.412;2.164;2022-08-25T14:28:21;100281.31;;;30.22;54.88
47154;BME280;32907;41.412;2.164;2022-08-25T14:30:55;100215.28;;;29.78;54.28
47154;BME280;32907;41.412;2.164;2022-08-25T14:33:33;100328.50;;;30.52;54.79
47154;BME280;32907;41.412;2.164;2022-08-25T14:36:02;100317.44;;;30.52;54.54
47154;BME280;32907;41.412;2.164;2022-08-25T14:38:32;100294.31;;;30.41;54.86
47154;BME280;32907;41.412;2.164;2022-08-25T14:41:00;100244.63;;;30.06;54.58
47154;BME280;32907;41.412;2.164;2022-08-25T14:43:28;100230.59;;;29.95;54.72
47154;BME280;32907;41.412;2.164;2022-08-25T14:46:01;100279.56;;;30.33;54.82
47154;BME280;32907;41.412;2.164;2022-08-25T14:48:41;100259.50;;;30.17;54.89
47154;BME280;32907;41.412;2.164;2022-08-25T14:51:11;100309.19;;;30.56;55.13
47154;BME280;32907;41.412;2.164;2022-08-25T14:53:41;100313.56;;;30.57;54.82
47154;BME280;32907;41.412;2.164;2022-08-25T14:56:09;100267.19;;;30.27;54.83
47154;BME280;32907;41.412;2.164;2022-08-25T14:58:41;100287.97;;;30.41;55.42
47154;BME280;32907;41.412;2.164;2022-08-25T15:01:21;100247.25;;;30.18;54.70
47154;BME280;32907;41.412;2.164;2022-08-25T15:04:01;100239.88;;;30.06;55.04
47154;BME280;32907;41.412;2.164;2022-08-25T15:06:29;100244.63;;;30.06;54.98
47154;BME280;32907;41.412;2.164;2022-08-25T15:08:57;100173.56;;;29.64;54.86
47154;BME280;32907;41.412;2.164;2022-08-25T15:11:34;100325.44;;;30.57;55.08
47154;BME280;32907;41.412;2.164;2022-08-25T15:14:08;100330.16;;;30.57;55.32
47154;BME280;32907;41.412;2.164;2022-08-25T15:16:41;100334.91;;;30.56;55.19
47154;BME280;32907;41.412;2.164;2022-08-25T15:19:14;100337.31;;;30.58;55.43
47154;BME280;32907;41.412;2.164;2022-08-25T15:21:44;100327.41;;;30.57;55.04
47154;BME280;32907;41.412;2.164;2022-08-25T15:24:13;100279.66;;;30.18;55.56
47154;BME280;32907;41.412;2.164;2022-08-25T15:29:19;100342.84;;;30.58;55.63
47154;BME280;32907;41.412;2.164;2022-08-25T15:31:50;100345.59;;;30.58;55.21
47154;BME280;32907;41.412;2.164;2022-08-25T15:34:20;100346.78;;;30.57;55.22
47154;BME280;32907;41.412;2.164;2022-08-25T15:36:48;100341.25;;;30.57;55.45
47154;BME280;32907;41.412;2.164;2022-08-25T15:39:17;100286.69;;;30.15;55.48
47154;BME280;32907;41.412;2.164;2022-08-25T15:41:46;100279.56;;;30.14;55.56
47154;BME280;32907;41.412;2.164;2022-08-25T15:44:20;100115.53;;;29.06;55.53
47154;BME280;32907;41.412;2.164;2022-08-25T15:46:57;100324.25;;;30.35;55.51
47154;BME280;32907;41.412;2.164;2022-08-25T15:49:27;100359.81;;;30.56;55.33
47154;BME280;32907;41.412;2.164;2022-08-25T15:51:57;100350.69;;;30.56;55.30
47154;BME280;32907;41.412;2.164;2022-08-25T15:54:27;100331.50;;;30.44;54.93
47154;BME280;32907;41.412;2.164;2022-08-25T15:56:57;100296.81;;;30.27;54.66
47154;BME280;32907;41.412;2.164;2022-08-25T15:59:27;100308.81;;;30.34;55.39
47154;BME280;32907;41.412;2.164;2022-08-25T16:01:55;100335.63;;;30.53;55.09
47154;BME280;32907;41.412;2.164;2022-08-25T16:04:25;100340.72;;;30.51;55.36
47154;BME280;32907;41.412;2.164;2022-08-25T16:06:54;100339.13;;;30.50;55.00
47154;BME280;32907;41.412;2.164;2022-08-25T16:09:22;100328.69;;;30.40;55.09
47154;BME280;32907;41.412;2.164;2022-08-25T16:11:51;100345.84;;;30.49;55.72
47154;BME280;32907;41.412;2.164;2022-08-25T16:14:25;100346.63;;;30.50;55.56
47154;BME280;32907;41.412;2.164;2022-08-25T16:16:54;100354.16;;;30.49;55.71
47154;BME280;32907;41.412;2.164;2022-08-25T16:19:27;100361.66;;;30.49;55.59
47154;BME280;32907;41.412;2.164;2022-08-25T16:21:57;100375.47;;;30.49;55.63
47154;BME280;32907;41.412;2.164;2022-08-25T16:24:26;100376.63;;;30.48;55.18
47154;BME280;32907;41.412;2.164;2022-08-25T16:26:54;100321.78;;;30.11;55.18
47154;BME280;32907;41.412;2.164;2022-08-25T16:29:38;100386.19;;;30.50;55.10
47154;BME280;32907;41.412;2.164;2022-08-25T16:32:09;100367.75;;;30.39;55.03
47154;BME280;32907;41.412;2.164;2022-08-25T16:34:37;100405.91;;;30.49;55.23
47154;BME280;32907;41.412;2.164;2022-08-25T16:37:05;100410.66;;;30.48;55.48
47154;BME280;32907;41.412;2.164;2022-08-25T16:39:33;100422.53;;;30.49;55.30
47154;BME280;32907;41.412;2.164;2022-08-25T16:42:01;100389.97;;;30.23;55.32
47154;BME280;32907;41.412;2.164;2022-08-25T16:44:29;100381.88;;;30.14;55.29
47154;BME280;32907;41.412;2.164;2022-08-25T16:46:56;100446.53;;;30.45;55.15
47154;BME280;32907;41.412;2.164;2022-08-25T16:49:24;100453.25;;;30.44;55.31
47154;BME280;32907;41.412;2.164;2022-08-25T16:51:54;100379.53;;;29.97;55.42
47154;BME280;32907;41.412;2.164;2022-08-25T16:54:25;100434.84;;;30.32;55.53
47154;BME280;32907;41.412;2.164;2022-08-25T16:57:12;100387.91;;;30.00;55.50
47154;BME280;32907;41.412;2.164;2022-08-25T16:59:39;100436.91;;;30.39;55.89
47154;BME280;32907;41.412;2.164;2022-08-25T17:02:10;100330.69;;;29.66;55.77
47154;BME280;32907;41.412;2.164;2022-08-25T17:04:38;100423.81;;;30.35;56.08
47154;BME280;32907;41.412;2.164;2022-08-25T17:07:07;100396.75;;;30.25;56.10
47154;BME280;32907;41.412;2.164;2022-08-25T17:09:34;100378.84;;;30.19;56.60
47154;BME280;32907;41.412;2.164;2022-08-25T17:12:03;100318.28;;;29.95;56.75
47154;BME280;32907;41.412;2.164;2022-08-25T17:14:31;100389.03;;;30.34;56.76
47154;BME280;32907;41.412;2.164;2022-08-25T17:17:00;100377.97;;;30.15;57.18
47154;BME280;32907;41.412;2.164;2022-08-25T17:19:30;100407.22;;;30.35;57.34
47154;BME280;32907;41.412;2.164;2022-08-25T17:21:58;100362.13;;;29.96;57.03
47154;BME280;32907;41.412;2.164;2022-08-25T17:24:25;100343.88;;;29.92;57.05
47154;BME280;32907;41.412;2.164;2022-08-25T17:26:56;100376.13;;;30.23;57.05
47154;BME280;32907;41.412;2.164;2022-08-25T17:29:24;100336.75;;;29.91;56.80
47154;BME280;32907;41.412;2.164;2022-08-25T17:31:52;100391.78;;;30.34;56.86
47154;BME280;32907;41.412;2.164;2022-08-25T17:34:20;100333.97;;;29.91;57.02
47154;BME280;32907;41.412;2.164;2022-08-25T17:36:50;100351.09;;;29.96;57.40
47154;BME280;32907;41.412;2.164;2022-08-25T17:39:20;100382.34;;;30.16;57.10
47154;BME280;32907;41.412;2.164;2022-08-25T17:41:49;100406.34;;;30.31;57.50
47154;BME280;32907;41.412;2.164;2022-08-25T17:44:18;100402.44;;;30.32;57.79
47154;BME280;32907;41.412;2.164;2022-08-25T17:46:46;100401.63;;;30.32;58.50
47154;BME280;32907;41.412;2.164;2022-08-25T17:49:15;100392.22;;;30.36;58.46
47154;BME280;32907;41.412;2.164;2022-08-25T17:51:44;100393.81;;;30.38;57.65
47154;BME280;32907;41.412;2.164;2022-08-25T17:54:13;100386.53;;;30.29;57.99
47154;BME280;32907;41.412;2.164;2022-08-25T17:56:42;100381.97;;;30.18;58.03
47154;BME280;32907;41.412;2.164;2022-08-25T17:59:09;100333.34;;;29.78;58.03
47154;BME280;32907;41.412;2.164;2022-08-25T18:01:38;100364.38;;;29.91;58.13
47154;BME280;32907;41.412;2.164;2022-08-25T18:04:08;100406.88;;;30.18;58.23
47154;BME280;32907;41.412;2.164;2022-08-25T18:06:46;100360.75;;;29.87;58.08
47154;BME280;32907;41.412;2.164;2022-08-25T18:09:15;100398.06;;;30.12;57.92
47154;BME280;32907;41.412;2.164;2022-08-25T18:11:44;100422.94;;;30.31;58.40
47154;BME280;32907;41.412;2.164;2022-08-25T18:14:13;100370.97;;;30.02;58.19
47154;BME280;32907;41.412;2.164;2022-08-25T18:16:44;100373.13;;;29.93;58.27
47154;BME280;32907;41.412;2.164;2022-08-25T18:19:12;100393.50;;;30.04;58.37
47154;BME280;32907;41.412;2.164;2022-08-25T18:21:40;100415.44;;;30.13;58.48
47154;BME280;32907;41.412;2.164;2022-08-25T18:24:11;100447.50;;;30.33;58.54
47154;BME280;32907;41.412;2.164;2022-08-25T18:26:39;100446.69;;;30.32;58.10
47154;BME280;32907;41.412;2.164;2022-08-25T18:29:08;100463.28;;;30.32;58.12
47154;BME280;32907;41.412;2.164;2022-08-25T18:31:41;100371.78;;;29.67;58.44
47154;BME280;32907;41.412;2.164;2022-08-25T18:34:09;100468.16;;;30.20;58.55
47154;BME280;32907;41.412;2.164;2022-08-25T18:36:40;100397.69;;;29.78;58.09
47154;BME280;32907;41.412;2.164;2022-08-25T18:39:08;100465.53;;;30.27;58.46
47154;BME280;32907;41.412;2.164;2022-08-25T18:42:03;100420.47;;;29.91;58.45
47154;BME280;32907;41.412;2.164;2022-08-25T18:44:31;100485.28;;;30.25;58.29
47154;BME280;32907;41.412;2.164;2022-08-25T18:46:59;100491.97;;;30.24;58.42
47154;BME280;32907;41.412;2.164;2022-08-25T18:49:34;100471.44;;;30.25;58.59
47154;BME280;32907;41.412;2.164;2022-08-25T18:52:02;100444.50;;;30.06;57.81
47154;BME280;32907;41.412;2.164;2022-08-25T18:54:30;100481.38;;;30.11;57.58
47154;BME280;32907;41.412;2.164;2022-08-25T18:57:02;100426.38;;;29.90;55.20
47154;BME280;32907;41.412;2.164;2022-08-25T18:59:30;100410.72;;;29.78;52.46
47154;BME280;32907;41.412;2.164;2022-08-25T19:01:58;100401.72;;;29.65;52.24
47154;BME280;32907;41.412;2.164;2022-08-25T19:04:29;100405.84;;;29.71;50.69
47154;BME280;32907;41.412;2.164;2022-08-25T19:06:59;100457.84;;;30.01;50.64
47154;BME280;32907;41.412;2.164;2022-08-25T19:09:27;100444.00;;;30.01;50.34
47154;BME280;32907;41.412;2.164;2022-08-25T19:11:57;100450.34;;;30.01;48.98
47154;BME280;32907;41.412;2.164;2022-08-25T19:14:25;100443.56;;;29.99;48.75
47154;BME280;32907;41.412;2.164;2022-08-25T19:16:54;100410.91;;;29.69;48.31
47154;BME280;32907;41.412;2.164;2022-08-25T19:19:24;100375.63;;;29.47;47.57
47154;BME280;32907;41.412;2.164;2022-08-25T19:21:53;100461.94;;;29.91;46.25
47154;BME280;32907;41.412;2.164;2022-08-25T19:24:20;100444.75;;;29.82;46.91
47154;BME280;32907;41.412;2.164;2022-08-25T19:26:49;100463.03;;;29.87;45.02
47154;BME280;32907;41.412;2.164;2022-08-25T19:29:21;100462.25;;;29.86;46.00
47154;BME280;32907;41.412;2.164;2022-08-25T19:31:50;100464.41;;;29.77;44.78
47154;BME280;32907;41.412;2.164;2022-08-25T19:34:24;100478.13;;;29.73;45.30
47154;BME280;32907;41.412;2.164;2022-08-25T19:36:59;100493.53;;;29.74;46.02
47154;BME280;32907;41.412;2.164;2022-08-25T19:39:31;100483.28;;;29.75;45.56
47154;BME280;32907;41.412;2.164;2022-08-25T19:41:59;100412.63;;;29.26;44.38
47154;BME280;32907;41.412;2.164;2022-08-25T19:44:29;100347.88;;;28.92;45.36
47154;BME280;32907;41.412;2.164;2022-08-25T19:46:57;100493.53;;;29.74;44.77
47154;BME280;32907;41.412;2.164;2022-08-25T19:49:28;100415.66;;;29.21;44.43
47154;BME280;32907;41.412;2.164;2022-08-25T19:52:01;100494.09;;;29.64;44.75
47154;BME280;32907;41.412;2.164;2022-08-25T19:54:41;100439.06;;;29.27;43.65
47154;BME280;32907;41.412;2.164;2022-08-25T19:57:12;100493.03;;;29.53;44.19
47154;BME280;32907;41.412;2.164;2022-08-25T20:00:06;100502.50;;;29.52;45.47
47154;BME280;32907;41.412;2.164;2022-08-25T20:02:38;100469.19;;;29.33;44.23
47154;BME280;32907;41.412;2.164;2022-08-25T20:05:06;100480.25;;;29.33;44.60
47154;BME280;32907;41.412;2.164;2022-08-25T20:07:35;100509.41;;;29.46;45.32
47154;BME280;32907;41.412;2.164;2022-08-25T20:10:07;100513.06;;;29.50;44.37
47154;BME280;32907;41.412;2.164;2022-08-25T20:12:41;100504.78;;;29.50;44.15
47154;BME280;32907;41.412;2.164;2022-08-25T20:15:13;100512.59;;;29.48;43.78
47154;BME280;32907;41.412;2.164;2022-08-25T20:17:43;100517.44;;;29.51;44.36
47154;BME280;32907;41.412;2.164;2022-08-25T20:20:15;100495.78;;;29.37;44.56
47154;BME280;32907;41.412;2.164;2022-08-25T20:22:46;100528.50;;;29.51;44.29
47154;BME280;32907;41.412;2.164;2022-08-25T20:25:25;100513.41;;;29.48;43.74
47154;BME280;32907;41.412;2.164;2022-08-25T20:28:02;100517.53;;;29.55;44.31
47154;BME280;32907;41.412;2.164;2022-08-25T20:30:30;100520.66;;;29.53;44.38
47154;BME280;32907;41.412;2.164;2022-08-25T20:32:58;100391.56;;;28.75;44.83
47154;BME280;32907;41.412;2.164;2022-08-25T20:35:27;100519.72;;;29.49;44.50
47154;BME280;32907;41.412;2.164;2022-08-25T20:37:56;100503.44;;;29.44;44.53
47154;BME280;32907;41.412;2.164;2022-08-25T20:40:26;100483.00;;;29.33;44.11
47154;BME280;32907;41.412;2.164;2022-08-25T20:42:55;100458.25;;;29.05;44.17
47154;BME280;32907;41.412;2.164;2022-08-25T20:45:25;100446.66;;;28.99;44.65
47154;BME280;32907;41.412;2.164;2022-08-25T20:47:53;100437.13;;;28.96;44.45
47154;BME280;32907;41.412;2.164;2022-08-25T20:50:21;100496.56;;;29.38;44.25
47154;BME280;32907;41.412;2.164;2022-08-25T20:52:51;100399.84;;;28.75;44.53
47154;BME280;32907;41.412;2.164;2022-08-25T20:55:22;100504.13;;;29.41;44.32
47154;BME280;32907;41.412;2.164;2022-08-25T20:57:50;100388.16;;;28.65;44.88
47154;BME280;32907;41.412;2.164;2022-08-25T21:00:18;100489.25;;;29.30;44.83
47154;BME280;32907;41.412;2.164;2022-08-25T21:02:52;100471.06;;;29.13;44.85
47154;BME280;32907;41.412;2.164;2022-08-25T21:05:20;100462.97;;;29.20;45.27
47154;BME280;32907;41.412;2.164;2022-08-25T21:07:48;100434.44;;;29.00;45.13
47154;BME280;32907;41.412;2.164;2022-08-25T21:10:16;100493.44;;;29.39;44.89
47154;BME280;32907;41.412;2.164;2022-08-25T21:12:44;100483.75;;;29.30;45.09
47154;BME280;32907;41.412;2.164;2022-08-25T21:15:12;100504.41;;;29.36;45.08
47154;BME280;32907;41.412;2.164;2022-08-25T21:17:48;100507.50;;;29.34;45.54
47154;BME280;32907;41.412;2.164;2022-08-25T21:20:18;100460.53;;;29.03;45.85
47154;BME280;32907;41.412;2.164;2022-08-25T21:22:48;100465.25;;;29.02;45.56
47154;BME280;32907;41.412;2.164;2022-08-25T21:25:17;100422.56;;;28.84;45.40
47154;BME280;32907;41.412;2.164;2022-08-25T21:27:47;100494.78;;;29.30;46.02
47154;BME280;32907;41.412;2.164;2022-08-25T21:30:16;100496.75;;;29.29;45.77
47154;BME280;32907;41.412;2.164;2022-08-25T21:32:44;100451.81;;;29.01;45.43
47154;BME280;32907;41.412;2.164;2022-08-25T21:35:22;100424.72;;;28.90;45.15
47154;BME280;32907;41.412;2.164;2022-08-25T21:37:51;100480.06;;;29.25;45.04
47154;BME280;32907;41.412;2.164;2022-08-25T21:40:20;100448.63;;;29.14;45.05
47154;BME280;32907;41.412;2.164;2022-08-25T21:42:50;100476.13;;;29.26;45.28
47154;BME280;32907;41.412;2.164;2022-08-25T21:45:18;100438.56;;;29.06;44.62
47154;BME280;32907;41.412;2.164;2022-08-25T21:47:48;100317.16;;;28.06;44.78
47154;BME280;32907;41.412;2.164;2022-08-25T21:50:19;100415.50;;;28.86;45.09
47154;BME280;32907;41.412;2.164;2022-08-25T21:52:48;100463.84;;;29.24;45.08
47154;BME280;32907;41.412;2.164;2022-08-25T21:55:21;100457.53;;;29.23;44.88
47154;BME280;32907;41.412;2.164;2022-08-25T21:57:49;100453.41;;;29.17;45.10
47154;BME280;32907;41.412;2.164;2022-08-25T22:00:18;100453.72;;;29.12;45.18
47154;BME280;32907;41.412;2.164;2022-08-25T22:02:47;100453.53;;;29.21;44.94
47154;BME280;32907;41.412;2.164;2022-08-25T22:05:15;100422.97;;;28.98;45.03
47154;BME280;32907;41.412;2.164;2022-08-25T22:07:43;100435.19;;;29.13;44.92
47154;BME280;32907;41.412;2.164;2022-08-25T22:10:12;100419.47;;;29.01;45.03
47154;BME280;32907;41.412;2.164;2022-08-25T22:12:45;100362.25;;;28.70;44.71
47154;BME280;32907;41.412;2.164;2022-08-25T22:15:16;100416.19;;;29.11;45.15
47154;BME280;32907;41.412;2.164;2022-08-25T22:17:45;100330.47;;;28.60;44.59
47154;BME280;32907;41.412;2.164;2022-08-25T22:20:16;100417.28;;;29.22;44.75
47154;BME280;32907;41.412;2.164;2022-08-25T22:22:44;100408.53;;;29.20;44.73
47154;BME280;32907;41.412;2.164;2022-08-25T22:25:12;100380.91;;;28.89;44.64
47154;BME280;32907;41.412;2.164;2022-08-25T22:27:41;100368.44;;;28.95;44.78
47154;BME280;32907;41.412;2.164;2022-08-25T22:30:09;100388.25;;;29.13;44.08
47154;BME280;32907;41.412;2.164;2022-08-25T22:32:38;100340.91;;;28.83;44.84
47154;BME280;32907;41.412;2.164;2022-08-25T22:35:06;100363.47;;;29.01;44.89
47154;BME280;32907;41.412;2.164;2022-08-25T22:37:36;100366.84;;;29.10;44.53
47154;BME280;32907;41.412;2.164;2022-08-25T22:40:04;100350.66;;;29.08;43.51
47154;BME280;32907;41.412;2.164;2022-08-25T22:42:34;100266.16;;;28.56;43.81
47154;BME280;32907;41.412;2.164;2022-08-25T22:45:02;100274.31;;;28.53;44.82
47154;BME280;32907;41.412;2.164;2022-08-25T22:47:29;100348.44;;;28.98;43.22
47154;BME280;32907;41.412;2.164;2022-08-25T22:49:58;100348.69;;;28.93;44.54
47154;BME280;32907;41.412;2.164;2022-08-25T22:52:27;100328.28;;;28.82;44.08
47154;BME280;32907;41.412;2.164;2022-08-25T22:55:00;100275.41;;;28.48;43.89
47154;BME280;32907;41.412;2.164;2022-08-25T22:57:30;100335.13;;;28.88;44.49
47154;BME280;32907;41.412;2.164;2022-08-25T22:59:58;100324.72;;;28.81;44.41
47154;BME280;32907;41.412;2.164;2022-08-25T23:02:26;100252.97;;;28.34;44.08
47154;BME280;32907;41.412;2.164;2022-08-25T23:04:56;100269.50;;;28.34;44.58
47154;BME280;32907;41.412;2.164;2022-08-25T23:07:28;100281.00;;;28.52;44.08
47154;BME280;32907;41.412;2.164;2022-08-25T23:09:58;100296.66;;;28.63;44.95
47154;BME280;32907;41.412;2.164;2022-08-25T23:12:32;100285.47;;;28.56;45.53
47154;BME280;32907;41.412;2.164;2022-08-25T23:15:00;100281.72;;;28.64;45.32
47154;BME280;32907;41.412;2.164;2022-08-25T23:17:28;100259.00;;;28.55;45.17
47154;BME280;32907;41.412;2.164;2022-08-25T23:19:58;100312.81;;;28.93;44.85
47154;BME280;32907;41.412;2.164;2022-08-25T23:22:25;100332.56;;;28.95;44.75
47154;BME280;32907;41.412;2.164;2022-08-25T23:24:53;100327.94;;;28.99;44.57
47154;BME280;32907;41.412;2.164;2022-08-25T23:27:23;100343.28;;;28.96;44.07
47154;BME280;32907;41.412;2.164;2022-08-25T23:29:51;100283.50;;;28.73;44.11
47154;BME280;32907;41.412;2.164;2022-08-25T23:32:20;100316.94;;;28.87;43.67